sensor_id;sensor_type;location;lat;lon;timestamp;temperature;humidity
7216;DHT22;3649;48.798;9.798;2022-12-29T00:02:22;9.90;99.90
7216;DHT22;3649;48.798;9.798;2022-12-29T00:04:49;9.90;99.90
7216;DHT22;3649;48.798;9.798;2022-12-29T00:07:17;9.90;99.90
7216;DHT22;3649;48.798;9.798;2022-12-29T00:09:44;9.90;99.90
7216;DHT22;3649;48.798;9.798;2022-12-29T00:12:11;9.80;99.90
7216;DHT22;3649;48.798;9.798;2022-12-29T00:14:37;9.80;99.90
7216;DHT22;3649;48.798;9.798;2022-12-29T00:17:23;9.90;99.90
7216;DHT22;3649;48.798;9.798;2022-12-29T00:19:49;9.90;99.90
7216;DHT22;3649;48.798;9.798;2022-12-29T00:22:35;9.80;99.90
7216;DHT22;3649;48.798;9.798;2022-12-29T00:25:20;9.80;99.90
7216;DHT22;3649;48.798;9.798;2022-12-29T00:28:08;9.90;99.90
7216;DHT22;3649;48.798;9.798;2022-12-29T00:30:58;11.50;99.90
7216;DHT22;3649;48.798;9.798;2022-12-29T00:33:44;10.80;99.90
7216;DHT22;3649;48.798;9.798;2022-12-29T00:36:36;9.90;99.90
7216;DHT22;3649;48.798;9.798;2022-12-29T00:39:16;9.90;99.90
7216;DHT22;3649;48.798;9.798;2022-12-29T00:42:07;9.80;99.90
7216;DHT22;3649;48.798;9.798;2022-12-29T00:44:53;9.90;99.90
7216;DHT22;3649;48.798;9.798;2022-12-29T00:47:20;9.90;99.90
7216;DHT22;3649;48.798;9.798;2022-12-29T00:49:47;9.90;99.90
7216;DHT22;3649;48.798;9.798;2022-12-29T00:52:14;9.90;99.90
7216;DHT22;3649;48.798;9.798;2022-12-29T00:54:41;9.80;99.90
7216;DHT22;3649;48.798;9.798;2022-12-29T00:57:09;9.90;99.90
7216;DHT22;3649;48.798;9.798;2022-12-29T00:59:37;9.90;99.90
7216;DHT22;3649;48.798;9.798;2022-12-29T01:02:04;9.90;99.90
7216;DHT22;3649;48.798;9.798;2022-12-29T01:04:32;9.70;99.90
7216;DHT22;3649;48.798;9.798;2022-12-29T01:06:59;9.90;99.90
7216;DHT22;3649;48.798;9.798;2022-12-29T01:09:26;9.90;99.90
7216;DHT22;3649;48.798;9.798;2022-12-29T01:12:12;9.90;99.90
7216;DHT22;3649;48.798;9.798;2022-12-29T01:14:39;10.00;99.90
7216;DHT22;3649;48.798;9.798;2022-12-29T01:17:07;9.90;99.90
7216;DHT22;3649;48.798;9.798;2022-12-29T01:19:34;10.10;99.90
7216;DHT22;3649;48.798;9.798;2022-12-29T01:22:00;9.80;99.90
7216;DHT22;3649;48.798;9.798;2022-12-29T01:24:27;9.90;99.90
7216;DHT22;3649;48.798;9.798;2022-12-29T01:26:54;9.90;99.90
7216;DHT22;3649;48.798;9.798;2022-12-29T01:29:21;9.90;99.90
7216;DHT22;3649;48.798;9.798;2022-12-29T01:31:48;10.00;99.90
7216;DHT22;3649;48.798;9.798;2022-12-29T01:34:17;10.00;99.90
7216;DHT22;3649;48.798;9.798;2022-12-29T01:36:44;10.00;99.90
7216;DHT22;3649;48.798;9.798;2022-12-29T01:39:11;10.10;99.90
7216;DHT22;3649;48.798;9.798;2022-12-29T01:41:40;10.40;99.90
7216;DHT22;3649;48.798;9.798;2022-12-29T01:47:11;10.30;99.90
7216;DHT22;3649;48.798;9.798;2022-12-29T01:49:38;10.30;99.90
7216;DHT22;3649;48.798;9.798;2022-12-29T01:52:06;10.30;99.90
7216;DHT22;3649;48.798;9.798;2022-12-29T01:54:39;10.30;99.90
7216;DHT22;3649;48.798;9.798;2022-12-29T01:57:12;10.30;99.90
7216;DHT22;3649;48.798;9.798;2022-12-29T01:59:58;10.30;99.90
7216;DHT22;3649;48.798;9.798;2022-12-29T02:02:27;10.30;99.90
7216;DHT22;3649;48.798;9.798;2022-12-29T02:04:59;10.30;99.90
7216;DHT22;3649;48.798;9.798;2022-12-29T02:07:31;10.40;99.90
7216;DHT22;3649;48.798;9.798;2022-12-29T02:09:58;10.40;99.90
7216;DHT22;3649;48.798;9.798;2022-12-29T02:12:26;10.40;99.90
7216;DHT22;3649;48.798;9.798;2022-12-29T02:14:57;10.30;99.90
7216;DHT22;3649;48.798;9.798;2022-12-29T02:31:35;10.30;99.90
7216;DHT22;3649;48.798;9.798;2022-12-29T02:48:57;10.20;99.90
7216;DHT22;3649;48.798;9.798;2022-12-29T02:51:37;10.30;99.90
7216;DHT22;3649;48.798;9.798;2022-12-29T02:54:05;10.20;99.90
7216;DHT22;3649;48.798;9.798;2022-12-29T02:56:51;10.20;99.90
7216;DHT22;3649;48.798;9.798;2022-12-29T02:59:18;10.30;99.90
7216;DHT22;3649;48.798;9.798;2022-12-29T03:02:18;10.30;99.90
7216;DHT22;3649;48.798;9.798;2022-12-29T03:08:02;10.10;99.90
7216;DHT22;3649;48.798;9.798;2022-12-29T03:19:21;10.00;99.90
7216;DHT22;3649;48.798;9.798;2022-12-29T03:21:55;8.70;99.90
7216;DHT22;3649;48.798;9.798;2022-12-29T03:24:45;10.10;99.90
7216;DHT22;3649;48.798;9.798;2022-12-29T03:27:18;10.30;99.90
7216;DHT22;3649;48.798;9.798;2022-12-29T03:29:50;10.10;99.90
7216;DHT22;3649;48.798;9.798;2022-12-29T03:32:22;10.20;99.90
7216;DHT22;3649;48.798;9.798;2022-12-29T03:34:50;10.20;99.90
7216;DHT22;3649;48.798;9.798;2022-12-29T03:37:22;10.20;99.90
7216;DHT22;3649;48.798;9.798;2022-12-29T03:39:50;10.20;99.90
7216;DHT22;3649;48.798;9.798;2022-12-29T03:42:20;10.20;99.90
7216;DHT22;3649;48.798;9.798;2022-12-29T03:44:48;10.90;99.90
7216;DHT22;3649;48.798;9.798;2022-12-29T03:47:14;10.20;99.90
7216;DHT22;3649;48.798;9.798;2022-12-29T03:49:42;10.30;99.90
7216;DHT22;3649;48.798;9.798;2022-12-29T03:52:09;11.40;99.90
7216;DHT22;3649;48.798;9.798;2022-12-29T03:54:36;10.30;99.90
7216;DHT22;3649;48.798;9.798;2022-12-29T03:57:03;10.10;99.90
7216;DHT22;3649;48.798;9.798;2022-12-29T03:59:29;10.20;99.90
7216;DHT22;3649;48.798;9.798;2022-12-29T04:01:56;10.20;99.90
7216;DHT22;3649;48.798;9.798;2022-12-29T04:04:24;10.20;99.90
7216;DHT22;3649;48.798;9.798;2022-12-29T04:06:52;10.20;99.90
7216;DHT22;3649;48.798;9.798;2022-12-29T04:09:19;10.30;99.90
7216;DHT22;3649;48.798;9.798;2022-12-29T04:11:46;10.30;99.90
7216;DHT22;3649;48.798;9.798;2022-12-29T04:14:12;10.40;99.90
7216;DHT22;3649;48.798;9.798;2022-12-29T04:16:39;10.30;99.90
7216;DHT22;3649;48.798;9.798;2022-12-29T04:19:06;10.30;99.90
7216;DHT22;3649;48.798;9.798;2022-12-29T04:21:34;10.30;99.90
7216;DHT22;3649;48.798;9.798;2022-12-29T04:24:00;11.70;99.90
7216;DHT22;3649;48.798;9.798;2022-12-29T04:26:27;10.30;99.90
7216;DHT22;3649;48.798;9.798;2022-12-29T04:28:54;10.30;99.90
7216;DHT22;3649;48.798;9.798;2022-12-29T04:31:21;10.30;99.90
7216;DHT22;3649;48.798;9.798;2022-12-29T04:33:48;10.40;99.90
7216;DHT22;3649;48.798;9.798;2022-12-29T04:36:15;10.30;99.90
7216;DHT22;3649;48.798;9.798;2022-12-29T04:38:44;10.30;99.90
7216;DHT22;3649;48.798;9.798;2022-12-29T04:41:10;10.30;99.90
7216;DHT22;3649;48.798;9.798;2022-12-29T04:43:37;10.30;99.90
7216;DHT22;3649;48.798;9.798;2022-12-29T04:46:04;10.30;99.90
7216;DHT22;3649;48.798;9.798;2022-12-29T04:48:31;10.20;99.90
7216;DHT22;3649;48.798;9.798;2022-12-29T04:50:58;10.30;99.90
7216;DHT22;3649;48.798;9.798;2022-12-29T04:53:24;10.20;99.90
7216;DHT22;3649;48.798;9.798;2022-12-29T04:55:52;10.30;99.90
7216;DHT22;3649;48.798;9.798;2022-12-29T04:58:20;10.30;99.90
7216;DHT22;3649;48.798;9.798;2022-12-29T05:00:49;10.30;99.90
7216;DHT22;3649;48.798;9.798;2022-12-29T05:03:16;10.30;99.90
7216;DHT22;3649;48.798;9.798;2022-12-29T05:05:43;10.40;99.90
7216;DHT22;3649;48.798;9.798;2022-12-29T05:08:10;10.30;99.90
7216;DHT22;3649;48.798;9.798;2022-12-29T05:10:37;10.30;99.90
7216;DHT22;3649;48.798;9.798;2022-12-29T05:13:04;10.30;99.90
7216;DHT22;3649;48.798;9.798;2022-12-29T05:15:31;10.30;99.90
7216;DHT22;3649;48.798;9.798;2022-12-29T05:17:57;10.30;99.90
7216;DHT22;3649;48.798;9.798;2022-12-29T05:20:24;10.30;99.90
7216;DHT22;3649;48.798;9.798;2022-12-29T05:22:51;11.30;99.90
7216;DHT22;3649;48.798;9.798;2022-12-29T05:25:18;10.30;99.90
7216;DHT22;3649;48.798;9.798;2022-12-29T05:27:44;10.40;99.90
7216;DHT22;3649;48.798;9.798;2022-12-29T05:30:12;10.30;99.90
7216;DHT22;3649;48.798;9.798;2022-12-29T05:32:40;10.30;99.90
7216;DHT22;3649;48.798;9.798;2022-12-29T05:35:08;10.20;99.90
7216;DHT22;3649;48.798;9.798;2022-12-29T05:37:34;10.20;99.90
7216;DHT22;3649;48.798;9.798;2022-12-29T05:40:01;10.10;99.90
7216;DHT22;3649;48.798;9.798;2022-12-29T05:42:28;10.10;99.90
7216;DHT22;3649;48.798;9.798;2022-12-29T05:44:55;10.10;99.90
7216;DHT22;3649;48.798;9.798;2022-12-29T05:47:22;10.10;99.90
7216;DHT22;3649;48.798;9.798;2022-12-29T05:49:48;10.10;99.90
7216;DHT22;3649;48.798;9.798;2022-12-29T05:52:15;10.20;99.90
7216;DHT22;3649;48.798;9.798;2022-12-29T05:54:42;10.10;99.90
7216;DHT22;3649;48.798;9.798;2022-12-29T05:57:10;10.00;99.90
7216;DHT22;3649;48.798;9.798;2022-12-29T05:59:36;10.00;99.90
7216;DHT22;3649;48.798;9.798;2022-12-29T06:02:03;10.00;99.90
7216;DHT22;3649;48.798;9.798;2022-12-29T06:04:30;9.90;99.90
7216;DHT22;3649;48.798;9.798;2022-12-29T06:06:57;10.10;99.90
7216;DHT22;3649;48.798;9.798;2022-12-29T06:09:24;10.10;99.90
7216;DHT22;3649;48.798;9.798;2022-12-29T06:11:50;10.10;99.90
7216;DHT22;3649;48.798;9.798;2022-12-29T06:14:17;9.90;99.90
7216;DHT22;3649;48.798;9.798;2022-12-29T06:16:44;9.90;99.90
7216;DHT22;3649;48.798;9.798;2022-12-29T06:19:11;9.90;99.90
7216;DHT22;3649;48.798;9.798;2022-12-29T06:21:38;9.80;99.90
7216;DHT22;3649;48.798;9.798;2022-12-29T06:24:05;9.90;99.90
7216;DHT22;3649;48.798;9.798;2022-12-29T06:26:32;10.00;99.90
7216;DHT22;3649;48.798;9.798;2022-12-29T06:28:58;9.90;99.90
7216;DHT22;3649;48.798;9.798;2022-12-29T06:31:25;9.90;99.90
7216;DHT22;3649;48.798;9.798;2022-12-29T06:33:52;9.80;99.90
7216;DHT22;3649;48.798;9.798;2022-12-29T06:36:19;9.70;99.90
7216;DHT22;3649;48.798;9.798;2022-12-29T06:38:46;9.80;99.90
7216;DHT22;3649;48.798;9.798;2022-12-29T06:41:13;9.70;99.90
7216;DHT22;3649;48.798;9.798;2022-12-29T06:43:39;9.70;99.90
7216;DHT22;3649;48.798;9.798;2022-12-29T06:46:06;9.70;99.90
7216;DHT22;3649;48.798;9.798;2022-12-29T06:48:33;9.80;99.90
7216;DHT22;3649;48.798;9.798;2022-12-29T06:50:59;9.70;99.90
7216;DHT22;3649;48.798;9.798;2022-12-29T06:53:26;9.70;99.90
7216;DHT22;3649;48.798;9.798;2022-12-29T06:55:53;9.80;99.90
7216;DHT22;3649;48.798;9.798;2022-12-29T06:58:20;9.90;99.90
7216;DHT22;3649;48.798;9.798;2022-12-29T07:00:47;9.80;99.90
7216;DHT22;3649;48.798;9.798;2022-12-29T07:03:14;9.80;99.90
7216;DHT22;3649;48.798;9.798;2022-12-29T07:05:42;9.80;99.90
7216;DHT22;3649;48.798;9.798;2022-12-29T07:08:09;9.70;99.90
7216;DHT22;3649;48.798;9.798;2022-12-29T07:10:36;9.70;99.90
7216;DHT22;3649;48.798;9.798;2022-12-29T07:13:03;9.70;99.90
7216;DHT22;3649;48.798;9.798;2022-12-29T07:15:29;9.70;99.90
7216;DHT22;3649;48.798;9.798;2022-12-29T07:17:56;9.70;99.90
7216;DHT22;3649;48.798;9.798;2022-12-29T07:20:23;9.70;99.90
7216;DHT22;3649;48.798;9.798;2022-12-29T07:22:52;9.60;99.90
7216;DHT22;3649;48.798;9.798;2022-12-29T07:25:19;9.70;99.90
7216;DHT22;3649;48.798;9.798;2022-12-29T07:27:46;9.70;99.90
7216;DHT22;3649;48.798;9.798;2022-12-29T07:30:13;9.70;99.90
7216;DHT22;3649;48.798;9.798;2022-12-29T07:32:40;9.70;99.90
7216;DHT22;3649;48.798;9.798;2022-12-29T07:35:07;9.70;99.90
7216;DHT22;3649;48.798;9.798;2022-12-29T07:37:34;9.70;99.90
7216;DHT22;3649;48.798;9.798;2022-12-29T07:40:02;10.80;99.90
7216;DHT22;3649;48.798;9.798;2022-12-29T07:42:31;9.80;99.90
7216;DHT22;3649;48.798;9.798;2022-12-29T07:44:58;9.70;99.90
7216;DHT22;3649;48.798;9.798;2022-12-29T07:47:25;9.80;99.90
7216;DHT22;3649;48.798;9.798;2022-12-29T07:49:52;9.80;99.90
7216;DHT22;3649;48.798;9.798;2022-12-29T07:52:19;9.80;99.90
7216;DHT22;3649;48.798;9.798;2022-12-29T07:54:46;9.70;99.90
7216;DHT22;3649;48.798;9.798;2022-12-29T07:57:13;9.60;99.90
7216;DHT22;3649;48.798;9.798;2022-12-29T07:59:39;9.60;99.90
7216;DHT22;3649;48.798;9.798;2022-12-29T08:02:09;9.60;99.90
7216;DHT22;3649;48.798;9.798;2022-12-29T08:04:37;9.60;99.90
7216;DHT22;3649;48.798;9.798;2022-12-29T08:07:04;10.80;99.90
7216;DHT22;3649;48.798;9.798;2022-12-29T08:09:31;9.60;99.90
7216;DHT22;3649;48.798;9.798;2022-12-29T08:11:58;9.70;99.90
7216;DHT22;3649;48.798;9.798;2022-12-29T08:14:25;9.70;99.90
7216;DHT22;3649;48.798;9.798;2022-12-29T08:16:52;9.70;99.90
7216;DHT22;3649;48.798;9.798;2022-12-29T08:19:18;11.20;99.90
7216;DHT22;3649;48.798;9.798;2022-12-29T08:21:45;9.80;99.90
7216;DHT22;3649;48.798;9.798;2022-12-29T08:24:12;9.80;99.90
7216;DHT22;3649;48.798;9.798;2022-12-29T08:26:39;9.90;99.90
7216;DHT22;3649;48.798;9.798;2022-12-29T08:29:06;9.90;99.90
7216;DHT22;3649;48.798;9.798;2022-12-29T08:31:33;10.50;99.90
7216;DHT22;3649;48.798;9.798;2022-12-29T08:34:00;9.90;99.90
7216;DHT22;3649;48.798;9.798;2022-12-29T08:36:28;10.00;99.90
7216;DHT22;3649;48.798;9.798;2022-12-29T08:38:54;10.00;99.90
7216;DHT22;3649;48.798;9.798;2022-12-29T08:41:21;10.10;99.90
7216;DHT22;3649;48.798;9.798;2022-12-29T08:43:49;10.10;99.90
7216;DHT22;3649;48.798;9.798;2022-12-29T08:46:16;10.10;99.90
7216;DHT22;3649;48.798;9.798;2022-12-29T08:48:43;10.20;99.90
7216;DHT22;3649;48.798;9.798;2022-12-29T08:51:10;10.30;99.90
7216;DHT22;3649;48.798;9.798;2022-12-29T08:53:37;10.30;99.90
7216;DHT22;3649;48.798;9.798;2022-12-29T08:56:04;10.40;99.90
7216;DHT22;3649;48.798;9.798;2022-12-29T08:58:32;10.50;99.90
7216;DHT22;3649;48.798;9.798;2022-12-29T09:00:59;10.50;99.90
7216;DHT22;3649;48.798;9.798;2022-12-29T09:03:26;10.60;99.90
7216;DHT22;3649;48.798;9.798;2022-12-29T09:06:14;10.60;99.90
7216;DHT22;3649;48.798;9.798;2022-12-29T09:08:41;10.70;99.90
7216;DHT22;3649;48.798;9.798;2022-12-29T09:13:38;10.90;99.90
7216;DHT22;3649;48.798;9.798;2022-12-29T09:16:05;10.90;99.90
7216;DHT22;3649;48.798;9.798;2022-12-29T09:18:32;11.10;99.90
7216;DHT22;3649;48.798;9.798;2022-12-29T09:21:01;11.10;99.90
7216;DHT22;3649;48.798;9.798;2022-12-29T09:23:29;11.20;99.90
7216;DHT22;3649;48.798;9.798;2022-12-29T09:25:56;11.30;99.90
7216;DHT22;3649;48.798;9.798;2022-12-29T09:28:23;11.50;99.90
7216;DHT22;3649;48.798;9.798;2022-12-29T09:30:50;11.60;99.90
7216;DHT22;3649;48.798;9.798;2022-12-29T09:33:17;11.90;99.90
7216;DHT22;3649;48.798;9.798;2022-12-29T09:35:49;11.90;99.90
7216;DHT22;3649;48.798;9.798;2022-12-29T09:38:16;12.20;99.90
7216;DHT22;3649;48.798;9.798;2022-12-29T09:40:49;12.10;99.90
7216;DHT22;3649;48.798;9.798;2022-12-29T09:46:23;12.30;99.90
7216;DHT22;3649;48.798;9.798;2022-12-29T09:51:53;12.60;99.90
7216;DHT22;3649;48.798;9.798;2022-12-29T09:54:37;12.50;99.90
7216;DHT22;3649;48.798;9.798;2022-12-29T09:57:15;12.70;99.90
7216;DHT22;3649;48.798;9.798;2022-12-29T09:59:45;12.80;99.90
7216;DHT22;3649;48.798;9.798;2022-12-29T10:02:32;12.90;99.90
7216;DHT22;3649;48.798;9.798;2022-12-29T10:04:59;12.90;99.90
7216;DHT22;3649;48.798;9.798;2022-12-29T10:15:54;13.10;99.90
7216;DHT22;3649;48.798;9.798;2022-12-29T10:18:50;13.20;99.90
7216;DHT22;3649;48.798;9.798;2022-12-29T10:24:09;13.30;99.90
7216;DHT22;3649;48.798;9.798;2022-12-29T10:26:42;13.30;99.90
7216;DHT22;3649;48.798;9.798;2022-12-29T10:29:19;13.40;99.90
7216;DHT22;3649;48.798;9.798;2022-12-29T10:32:13;13.40;99.90
7216;DHT22;3649;48.798;9.798;2022-12-29T10:34:47;13.50;99.90
7216;DHT22;3649;48.798;9.798;2022-12-29T10:39:48;13.60;99.90
7216;DHT22;3649;48.798;9.798;2022-12-29T10:42:27;13.60;99.90
7216;DHT22;3649;48.798;9.798;2022-12-29T10:44:55;13.60;99.90
7216;DHT22;3649;48.798;9.798;2022-12-29T10:47:33;13.70;99.90
7216;DHT22;3649;48.798;9.798;2022-12-29T10:50:02;13.70;99.90
7216;DHT22;3649;48.798;9.798;2022-12-29T10:52:30;13.70;99.90
7216;DHT22;3649;48.798;9.798;2022-12-29T10:55:02;13.80;99.90
7216;DHT22;3649;48.798;9.798;2022-12-29T10:57:37;13.80;99.90
7216;DHT22;3649;48.798;9.798;2022-12-29T11:05:35;13.80;99.90
7216;DHT22;3649;48.798;9.798;2022-12-29T11:08:09;13.80;99.90
7216;DHT22;3649;48.798;9.798;2022-12-29T11:10:39;13.90;99.90
7216;DHT22;3649;48.798;9.798;2022-12-29T11:13:13;13.90;99.90
7216;DHT22;3649;48.798;9.798;2022-12-29T11:15:42;13.80;99.90
7216;DHT22;3649;48.798;9.798;2022-12-29T11:18:23;13.90;99.90
7216;DHT22;3649;48.798;9.798;2022-12-29T11:20:56;13.80;99.90
7216;DHT22;3649;48.798;9.798;2022-12-29T11:23:40;13.80;99.90
7216;DHT22;3649;48.798;9.798;2022-12-29T11:28:37;13.80;99.90
7216;DHT22;3649;48.798;9.798;2022-12-29T11:31:06;13.70;99.90
7216;DHT22;3649;48.798;9.798;2022-12-29T11:33:38;13.80;99.90
7216;DHT22;3649;48.798;9.798;2022-12-29T11:36:12;13.80;99.90
7216;DHT22;3649;48.798;9.798;2022-12-29T11:39:02;14.50;99.90
7216;DHT22;3649;48.798;9.798;2022-12-29T11:41:30;13.80;99.90
7216;DHT22;3649;48.798;9.798;2022-12-29T11:44:00;13.90;99.90
7216;DHT22;3649;48.798;9.798;2022-12-29T11:46:34;13.90;99.90
7216;DHT22;3649;48.798;9.798;2022-12-29T11:49:03;13.90;99.90
7216;DHT22;3649;48.798;9.798;2022-12-29T11:51:43;14.00;99.90
7216;DHT22;3649;48.798;9.798;2022-12-29T11:54:21;14.00;99.90
7216;DHT22;3649;48.798;9.798;2022-12-29T11:56:48;14.00;99.90
7216;DHT22;3649;48.798;9.798;2022-12-29T12:02:11;14.00;99.90
7216;DHT22;3649;48.798;9.798;2022-12-29T12:04:42;14.70;99.90
7216;DHT22;3649;48.798;9.798;2022-12-29T12:10:00;14.20;99.90
7216;DHT22;3649;48.798;9.798;2022-12-29T12:12:39;14.10;99.90
7216;DHT22;3649;48.798;9.798;2022-12-29T12:15:16;14.10;99.90
7216;DHT22;3649;48.798;9.798;2022-12-29T12:20:45;14.20;99.90
7216;DHT22;3649;48.798;9.798;2022-12-29T12:23:32;14.20;99.90
7216;DHT22;3649;48.798;9.798;2022-12-29T12:26:13;14.20;99.90
7216;DHT22;3649;48.798;9.798;2022-12-29T12:31:17;14.10;99.90
7216;DHT22;3649;48.798;9.798;2022-12-29T12:33:53;14.20;99.90
7216;DHT22;3649;48.798;9.798;2022-12-29T12:39:15;14.20;99.90
7216;DHT22;3649;48.798;9.798;2022-12-29T12:47:42;14.20;99.90
7216;DHT22;3649;48.798;9.798;2022-12-29T12:53:30;14.20;99.90
7216;DHT22;3649;48.798;9.798;2022-12-29T12:56:23;14.10;99.90
7216;DHT22;3649;48.798;9.798;2022-12-29T12:58:59;14.10;99.90
7216;DHT22;3649;48.798;9.798;2022-12-29T13:01:38;14.10;99.90
7216;DHT22;3649;48.798;9.798;2022-12-29T13:12:54;14.10;99.90
7216;DHT22;3649;48.798;9.798;2022-12-29T13:19:04;14.00;99.90
7216;DHT22;3649;48.798;9.798;2022-12-29T13:22:13;14.00;99.90
7216;DHT22;3649;48.798;9.798;2022-12-29T13:25:08;14.00;99.90
7216;DHT22;3649;48.798;9.798;2022-12-29T13:27:48;14.00;99.90
7216;DHT22;3649;48.798;9.798;2022-12-29T13:30:19;14.00;99.90
7216;DHT22;3649;48.798;9.798;2022-12-29T13:36:08;14.00;99.90
7216;DHT22;3649;48.798;9.798;2022-12-29T13:38:43;13.90;99.90
7216;DHT22;3649;48.798;9.798;2022-12-29T13:41:22;14.00;99.90
7216;DHT22;3649;48.798;9.798;2022-12-29T13:43:51;14.00;99.90
7216;DHT22;3649;48.798;9.798;2022-12-29T13:46:25;13.90;99.90
7216;DHT22;3649;48.798;9.798;2022-12-29T13:48:58;14.00;99.90
7216;DHT22;3649;48.798;9.798;2022-12-29T13:51:26;14.00;99.90
7216;DHT22;3649;48.798;9.798;2022-12-29T13:57:13;14.00;99.90
7216;DHT22;3649;48.798;9.798;2022-12-29T14:00:04;14.00;99.90
7216;DHT22;3649;48.798;9.798;2022-12-29T14:07:48;14.00;99.90
7216;DHT22;3649;48.798;9.798;2022-12-29T14:15:42;14.00;99.90
7216;DHT22;3649;48.798;9.798;2022-12-29T14:18:19;14.00;99.90
7216;DHT22;3649;48.798;9.798;2022-12-29T14:20:56;14.00;99.90
7216;DHT22;3649;48.798;9.798;2022-12-29T14:36:39;14.00;99.90
7216;DHT22;3649;48.798;9.798;2022-12-29T14:39:38;14.10;99.90
7216;DHT22;3649;48.798;9.798;2022-12-29T14:42:12;14.10;99.90
7216;DHT22;3649;48.798;9.798;2022-12-29T14:47:44;14.10;99.90
7216;DHT22;3649;48.798;9.798;2022-12-29T14:50:25;14.10;99.90
7216;DHT22;3649;48.798;9.798;2022-12-29T14:52:57;14.10;99.90
7216;DHT22;3649;48.798;9.798;2022-12-29T14:55:47;14.10;99.90
7216;DHT22;3649;48.798;9.798;2022-12-29T14:58:27;14.10;99.90
7216;DHT22;3649;48.798;9.798;2022-12-29T15:00:55;14.10;99.90
7216;DHT22;3649;48.798;9.798;2022-12-29T15:03:30;14.10;99.90
7216;DHT22;3649;48.798;9.798;2022-12-29T15:06:10;14.10;99.90
7216;DHT22;3649;48.798;9.798;2022-12-29T15:09:17;14.10;99.90
7216;DHT22;3649;48.798;9.798;2022-12-29T15:11:56;14.20;99.90
7216;DHT22;3649;48.798;9.798;2022-12-29T15:14:36;14.20;99.90
7216;DHT22;3649;48.798;9.798;2022-12-29T15:17:26;14.20;99.90
7216;DHT22;3649;48.798;9.798;2022-12-29T15:19:55;14.20;99.90
7216;DHT22;3649;48.798;9.798;2022-12-29T15:22:23;15.00;99.90
7216;DHT22;3649;48.798;9.798;2022-12-29T15:24:52;14.10;99.90
7216;DHT22;3649;48.798;9.798;2022-12-29T15:27:21;14.10;99.90
7216;DHT22;3649;48.798;9.798;2022-12-29T15:30:00;14.10;99.90
7216;DHT22;3649;48.798;9.798;2022-12-29T15:32:38;14.10;99.90
7216;DHT22;3649;48.798;9.798;2022-12-29T15:35:27;14.00;99.90
7216;DHT22;3649;48.798;9.798;2022-12-29T15:37:55;14.00;99.90
7216;DHT22;3649;48.798;9.798;2022-12-29T15:40:33;14.00;99.90
7216;DHT22;3649;48.798;9.798;2022-12-29T15:43:37;12.70;99.90
7216;DHT22;3649;48.798;9.798;2022-12-29T15:46:12;14.00;99.90
7216;DHT22;3649;48.798;9.798;2022-12-29T15:48:40;13.90;99.90
7216;DHT22;3649;48.798;9.798;2022-12-29T15:51:33;13.90;99.90
7216;DHT22;3649;48.798;9.798;2022-12-29T15:54:01;13.90;99.90
7216;DHT22;3649;48.798;9.798;2022-12-29T15:56:29;13.90;99.90
7216;DHT22;3649;48.798;9.798;2022-12-29T15:58:57;14.00;99.90
7216;DHT22;3649;48.798;9.798;2022-12-29T16:01:30;13.90;99.90
7216;DHT22;3649;48.798;9.798;2022-12-29T16:04:05;13.90;99.90
7216;DHT22;3649;48.798;9.798;2022-12-29T16:06:38;13.80;99.90
7216;DHT22;3649;48.798;9.798;2022-12-29T16:09:09;13.70;99.90
7216;DHT22;3649;48.798;9.798;2022-12-29T16:11:43;14.00;99.90
7216;DHT22;3649;48.798;9.798;2022-12-29T16:14:17;13.80;99.90
7216;DHT22;3649;48.798;9.798;2022-12-29T16:16:46;13.90;99.90
7216;DHT22;3649;48.798;9.798;2022-12-29T16:19:29;13.90;99.90
7216;DHT22;3649;48.798;9.798;2022-12-29T16:21:59;13.80;99.90
7216;DHT22;3649;48.798;9.798;2022-12-29T16:24:30;13.80;99.90
7216;DHT22;3649;48.798;9.798;2022-12-29T16:29:33;13.80;99.90
7216;DHT22;3649;48.798;9.798;2022-12-29T16:32:01;13.80;99.90
7216;DHT22;3649;48.798;9.798;2022-12-29T16:37:59;13.80;99.90
7216;DHT22;3649;48.798;9.798;2022-12-29T16:39:51;13.80;99.90
7216;DHT22;3649;48.798;9.798;2022-12-29T16:50:32;13.80;99.90
7216;DHT22;3649;48.798;9.798;2022-12-29T16:53:00;13.80;99.90
7216;DHT22;3649;48.798;9.798;2022-12-29T16:55:29;13.70;99.90
7216;DHT22;3649;48.798;9.798;2022-12-29T16:57:57;13.80;99.90
7216;DHT22;3649;48.798;9.798;2022-12-29T17:00:27;13.70;99.90
7216;DHT22;3649;48.798;9.798;2022-12-29T17:02:56;13.60;99.90
7216;DHT22;3649;48.798;9.798;2022-12-29T17:05:24;13.60;99.90
7216;DHT22;3649;48.798;9.798;2022-12-29T17:07:51;13.40;99.90
7216;DHT22;3649;48.798;9.798;2022-12-29T17:10:19;13.40;99.90
7216;DHT22;3649;48.798;9.798;2022-12-29T17:12:47;13.40;99.90
7216;DHT22;3649;48.798;9.798;2022-12-29T17:15:25;13.30;99.90
7216;DHT22;3649;48.798;9.798;2022-12-29T17:17:55;13.20;99.90
7216;DHT22;3649;48.798;9.798;2022-12-29T17:20:25;13.00;99.90
7216;DHT22;3649;48.798;9.798;2022-12-29T17:22:52;13.10;99.90
7216;DHT22;3649;48.798;9.798;2022-12-29T17:25:34;13.10;99.90
7216;DHT22;3649;48.798;9.798;2022-12-29T17:28:04;13.10;99.90
7216;DHT22;3649;48.798;9.798;2022-12-29T17:30:33;13.00;99.90
7216;DHT22;3649;48.798;9.798;2022-12-29T17:33:06;13.00;99.90
7216;DHT22;3649;48.798;9.798;2022-12-29T17:35:35;12.90;99.90
7216;DHT22;3649;48.798;9.798;2022-12-29T17:38:08;13.00;99.90
7216;DHT22;3649;48.798;9.798;2022-12-29T17:40:39;13.30;99.90
7216;DHT22;3649;48.798;9.798;2022-12-29T17:43:12;12.90;99.90
7216;DHT22;3649;48.798;9.798;2022-12-29T17:45:40;12.90;99.90
7216;DHT22;3649;48.798;9.798;2022-12-29T17:48:15;12.90;99.90
7216;DHT22;3649;48.798;9.798;2022-12-29T17:50:43;13.40;99.90
7216;DHT22;3649;48.798;9.798;2022-12-29T17:53:15;12.90;99.90
7216;DHT22;3649;48.798;9.798;2022-12-29T17:55:42;12.90;99.90
7216;DHT22;3649;48.798;9.798;2022-12-29T17:58:27;12.90;99.90
7216;DHT22;3649;48.798;9.798;2022-12-29T18:00:57;13.90;99.90
7216;DHT22;3649;48.798;9.798;2022-12-29T18:03:33;13.10;99.90
7216;DHT22;3649;48.798;9.798;2022-12-29T18:06:01;12.90;99.90
7216;DHT22;3649;48.798;9.798;2022-12-29T18:08:30;12.90;99.90
7216;DHT22;3649;48.798;9.798;2022-12-29T18:10:58;12.90;99.90
7216;DHT22;3649;48.798;9.798;2022-12-29T18:13:27;12.80;99.90
7216;DHT22;3649;48.798;9.798;2022-12-29T18:16:10;12.90;99.90
7216;DHT22;3649;48.798;9.798;2022-12-29T18:18:37;12.80;99.90
7216;DHT22;3649;48.798;9.798;2022-12-29T18:21:04;12.90;99.90
7216;DHT22;3649;48.798;9.798;2022-12-29T18:23:32;12.90;99.90
7216;DHT22;3649;48.798;9.798;2022-12-29T18:26:06;12.90;99.90
7216;DHT22;3649;48.798;9.798;2022-12-29T18:28:37;12.80;99.90
7216;DHT22;3649;48.798;9.798;2022-12-29T18:31:18;12.90;99.90
7216;DHT22;3649;48.798;9.798;2022-12-29T18:33:46;12.80;99.90
7216;DHT22;3649;48.798;9.798;2022-12-29T18:36:13;12.80;99.90
7216;DHT22;3649;48.798;9.798;2022-12-29T18:38:41;13.10;99.90
7216;DHT22;3649;48.798;9.798;2022-12-29T18:41:14;12.70;99.90
7216;DHT22;3649;48.798;9.798;2022-12-29T18:43:42;12.70;99.90
7216;DHT22;3649;48.798;9.798;2022-12-29T18:46:09;12.70;99.90
7216;DHT22;3649;48.798;9.798;2022-12-29T18:48:36;13.60;99.90
7216;DHT22;3649;48.798;9.798;2022-12-29T18:51:04;12.70;99.90
7216;DHT22;3649;48.798;9.798;2022-12-29T18:53:31;12.70;99.90
7216;DHT22;3649;48.798;9.798;2022-12-29T18:55:58;12.70;99.90
7216;DHT22;3649;48.798;9.798;2022-12-29T18:58:25;12.70;99.90
7216;DHT22;3649;48.798;9.798;2022-12-29T19:00:59;12.80;99.90
7216;DHT22;3649;48.798;9.798;2022-12-29T19:03:26;12.70;99.90
7216;DHT22;3649;48.798;9.798;2022-12-29T19:05:53;13.60;99.90
7216;DHT22;3649;48.798;9.798;2022-12-29T19:08:20;12.70;99.90